Hauptseite
METAR-TAF:

METAR-TAF

Flughäfen :

Bückeburg, Deutschland

Heeresflugplatz Bückeburg

Breite: 52-17N, Länge: 009-05E, Höhe: 70 m

Beobachtung

Neuester Wetterbericht von vor 38 Minuten, um 08:20 UTC
Wind 11 kt aus Süd
Temperatur 11°C
Luftfeuchtigkeit 66%
Luftdruck 1003 hPa
Sichtweite 10 km oder mehr
Durchbrochene Bewölkung in der Höhe von 4000 ft

METAR: ETHB 270820Z 19011KT 9999 BKN040 11/05 Q1003 BLU BLU

Zeit: 09:58 (08:58 UTC)

Prognose

Neuester Wetterbericht von vor 56 Minuten, um 08:02 UTC
Gültige Prognose vom 27 um 09 UTC bis 27 um 18 UTC
Wind 15 kt aus Süd, Böen bis zu 25 kt
Sichtweite 10 km oder mehr
Aufgelockert bewölkt in der Höhe von 3000 ft
Durchbrochene Bewölkung in der Höhe von 5000 ft

TAF: ETHB 270802Z 2709/2718 19015G25KT 9999 NSW SCT030 BKN050

Wetterbeobachtungen und Prognosen von mehr als 4000 Flughäfen (METAR und TAF Bericht).

Die verfügbaren Stationen werden durch gelbe und rote Markierungen auf der Karte dargestellt.

Führen Sie die Maus auf sie, um den Namen der Station zu sehen.

Darauf klicken, um die Beobachtung von Wetterbeobachtungen und Prognosen zu sehen.

Um die Karte zu ändern : klicken Sie auf den grünen Tasten mit einem schwarzen Kreuz Zum Vergrößern, auf den grünen Button mit einem Gedankenstrich zu verkleinern, oder auf die grünen Pfeile für benachbarte Karten.


METAR-TAF: